In Rescue
 
Open Full Screen Window  High Contrast Mode
Wind Gusting 00 knots
08
March 01, 2024 2:57 PM CST
Weather Information
Wind Direction
  220 °
Wind Speed
  08 kt (9 mph)
Wind Gust
  00 kt (0 mph)
Altimeter
29.66 in
Visibility
10 SM
Temperature
04° C
39° F
Dewpoint
01° C
34° F
Humidity
81%
Sky Condition
Clear
VFR

METAR KCKN 012057Z AUTO 22008KT 10SM CLR 04/01 A2966 RMK AO2

FAA Disclaimer: The data displayed is for advisory purposes only and is not to be used for flight planning or operations.